Tiempo atmosférico en la estación meteorológica de Montanejos, Castelló/Castellón (601 m.)



Fecha
DESCASC
Temp. máxima en grados centígrados (hora)
DESCASC
Temp. mínima en grados centígrados (hora)
DESCASC
Temp. media en grados centígrados
DESCASC
Racha de viento máxima en m/sg (hora)
DESCASC
Velocidad máxima media en intervalos de 10 minutos(hora)
DESCASC
Precipitaciones diarias en mm
DESCASC
Precipitaciones de 00:00 a 06:00 en mm
DESCASC
Precipitaciones de 06:00 a 12:00 en mm
DESCASC
Precipitaciones de 12:00 a 18:00 en mm
DESCASC
Precipitaciones de 18:00 a 24:00 en mm
DESCASC
02-08-2020 31.6 (13:40) 19.9 (07:40) 25.8 11.94 (14:50) 7.5 (16:50) 0 0 0 0 0
01-08-2020 39.7 (17:30) 21 (07:40) 30.4 11.39 (16:40) 7.78 (19:10) 0 0 0 0 0
31-07-2020 35.6 (13:30) 20.9 (07:40) 28.2 10.56 (17:50) 5.83 (17:30) 0 0 0 0 0
30-07-2020 34.2 (15:20) 17.9 (00:00) 26.1 18.06 (22:20) 10.83 (22:20) 0 0 0 0 0
29-07-2020 31.8 (16:30) 18 (00:00) 24.9 12.78 (16:30) 5.56 (15:00) 0 0 0 0 0
28-07-2020 34 (15:30) 19.2 (00:00) 26.6 11.11 (16:30) 5.28 (14:30) 0 0 0 0 0
27-07-2020 35.2 (14:20) 18.1 (00:00) 26.7 10.83 (16:00) 4.72 (14:40) 0 0 0 0 0
26-07-2020 32.2 (14:00) 18.4 (00:00) 25.3 10.83 (17:10) 6.39 (14:30) 0 0 0 0 0
25-07-2020 30.3 (14:20) 17.4 (00:00) 23.8 10.56 (15:10) 6.11 (14:40) 0 0 0 0 0
24-07-2020 31.1 (14:20) 18 (00:00) 24.6 11.11 (15:10) 6.11 (16:20) 0 0 0 0 0
23-07-2020 33.2 (15:40) 14.8 (00:00) 24 10.83 (16:20) 6.39 (16:30) 0 0 0 0 0
22-07-2020 27.8 (18:40) 17.5 (00:00) 22.6 8.89 (15:50) 5.56 (13:50) 0.8 0 0.2 0.6 0
21-07-2020 30.7 (14:20) 19.4 (00:00) 25.1 11.67 (15:00) 5.28 (19:10) 0 0 0 0 0
20-07-2020 29.3 (15:50) 19.5 (00:00) 24.4 10.83 (16:10) 5.28 (16:00) 0.4 0.4 0 0 0
19-07-2020 30.3 (13:10) 18.1 (00:00) 24.2 12.22 (15:50) 6.94 (16:00) 0 0 0 0 0
18-07-2020 29.2 (15:00) 16.8 (00:00) 23 11.39 (16:40) 5.28 (16:40) 0 0 0 0 0
17-07-2020 28.1 (15:20) 17.2 (00:00) 22.7 11.11 (14:20) 6.11 (16:10) 0 0 0 0 0
16-07-2020 27.7 (15:00) 17 (00:00) 22.4 10 (16:30) 5 (16:10) 0 0 0 0 0
15-07-2020 28.3 (15:20) 14.5 (00:00) 21.4 10 (16:40) 5.28 (16:40) 0 0 0 0 0
14-07-2020 26.7 (12:40) 18.1 (00:00) 22.4 10.83 (16:30) 5.56 (16:30) 1 0 0 1 0
13-07-2020 28.9 (16:20) 17.9 (00:00) 23.4 10 (17:30) 5.83 (16:50) 0.6 0.4 0 0 0.2
12-07-2020 28.3 (14:00) 17.1 (06:50) 22.7 12.22 (14:10) 6.94 (14:30) 0.6 0 0 0.2 0.4
11-07-2020 28.2 (13:20) 17.9 (07:20) 23.1 11.67 (14:00) 6.39 (16:10) 0 0 0 0 0
10-07-2020 30 (14:50) 16.6 (00:00) 23.3 10.56 (15:00) 6.39 (16:20) 0 0 0 0 0
09-07-2020 31.5 (16:30) 19 (04:00) 25.3 10.28 (17:50) 6.67 (20:00) 0.2 0 0.2 0 0
08-07-2020 28.8 (14:40) 17.9 (06:50) 23.3 11.67 (19:00) 5.28 (19:10) 0.6 0 0 0 0.6

Gráficas

Temp. máximas Temp. mínimas Temp. medias Precipitaciones Rachas de viento máximas Velocidades máximas media en intervalos de 10 minutos

Datos horarios

Fecha y hora oficial Temperatura (ºC) Velocidad del viento (km/h) Dirección del viento Racha (km/h) Dirección de racha Precipitación (mm) Presión (hPa) Tendencia (hPa) Humedad (%)
2020-08-06 23:00:00 22.9 2 Sur 12 Sur 0 -- -- 69
2020-08-06 22:00:00 23.5 8 Sur 20 Sur 0 -- -- 69
2020-08-06 21:00:00 25 13 Sur 26 Sur 0 -- -- 65
2020-08-06 20:00:00 27.1 13 Sur 26 Sudoeste 0 -- -- 60
2020-08-06 19:00:00 28.4 17 Sur 30 Sudeste 0 -- -- 56
2020-08-06 18:00:00 29.1 17 Sur 32 Sur 0 -- -- 55
2020-08-06 17:00:00 29.9 18 Sur 36 Sur 0 -- -- 52
2020-08-06 16:00:00 30.7 20 Sur 33 Sur 0 -- -- 49
2020-08-06 15:00:00 31.4 15 Sur 31 Sur 0 -- -- 48
2020-08-06 14:00:00 31.6 13 Sur 29 Sur 0 -- -- 42
2020-08-06 13:00:00 30.8 13 Sur 32 Sur 0 -- -- 36
2020-08-06 12:00:00 29.5 9 Sur 18 Sur 0 -- -- 39
2020-08-06 11:00:00 25.6 2 Oeste 4 Norte 0 -- -- 55
2020-08-06 10:00:00 23 3 Nordeste 9 Norte 0 -- -- 75
2020-08-06 09:00:00 19.5 4 Norte 9 Noroeste 0 -- -- 89
2020-08-06 08:00:00 18.8 7 Noroeste 11 Noroeste 0 -- -- 92
2020-08-06 07:00:00 18.9 3 Noroeste 6 Noroeste 0 -- -- 92
2020-08-06 06:00:00 19.3 0 Calma 7 Oeste 0 -- -- 90
2020-08-06 05:00:00 19.7 0 Calma 6 Oeste 0 -- -- 90
2020-08-06 04:00:00 19.6 0 Calma 3 Sur 0 -- -- 89
2020-08-06 03:00:00 20.2 2 Sur 3 Sur 0 -- -- 87
2020-08-06 02:00:00 20.6 0 Calma 3 Sudoeste 0 -- -- 85
2020-08-06 01:00:00 21.2 2 Sudeste 6 Sudeste 0 -- -- 83
2020-08-06 00:00:00 21.8 3 Sudeste 5 Este 0 -- -- 81
2020-08-05 23:00:00 22.3 4 Sur 14 Sur 0 -- -- 79
2020-08-05 22:00:00 23 8 Sur 23 Sudeste 0 -- -- 77
2020-08-05 21:00:00 23.5 13 Sur 31 Sur 0 -- -- 77
2020-08-05 20:00:00 24.5 15 Sur 30 Sur 0 -- -- 74
2020-08-05 19:00:00 26.1 18 Sur 36 Sur 0 -- -- 70
2020-08-05 18:00:00 26.7 18 Sur 38 Sudoeste 0 -- -- 67
2020-08-05 17:00:00 27.7 17 Sur 37 Sur 0 -- -- 64
2020-08-05 16:00:00 28.5 17 Sur 40 Sudeste 0 -- -- 62
2020-08-05 15:00:00 28.5 15 Sur 35 Sur 0 -- -- 61
2020-08-05 14:00:00 28.8 17 Sur 35 Sudoeste 0 -- -- 59
2020-08-05 13:00:00 28.7 10 Sur 28 Sudoeste 0 -- -- 52
2020-08-05 12:00:00 27.3 9 Sur 21 Sur 0 -- -- 56
2020-08-05 11:00:00 25.2 6 Sur 17 Sur 0 -- -- 61
2020-08-05 10:00:00 21.8 2 Norte 6 Noroeste 0 -- -- 72
2020-08-05 09:00:00 18.5 5 Norte 13 Noroeste 0 -- -- 84
2020-08-05 08:00:00 17.8 7 Noroeste 12 Noroeste 0 -- -- 88
2020-08-05 07:00:00 18 5 Noroeste 12 Noroeste 0 -- -- 90
2020-08-05 06:00:00 18.4 2 Oeste 12 Noroeste 0 -- -- 89
2020-08-05 05:00:00 18.8 6 Noroeste 10 Noroeste 0 -- -- 89
2020-08-05 04:00:00 19.1 5 Noroeste 10 Noroeste 0 -- -- 87
2020-08-05 03:00:00 19.5 4 Noroeste 8 Noroeste 0 -- -- 87
2020-08-05 02:00:00 20.1 0 Calma 7 Norte 0 -- -- 85
2020-08-05 01:00:00 20.5 0 Calma 5 Este 0 -- -- 83
2020-08-05 00:00:00 21 0 Calma 5 Sur 0 -- -- 81
2020-08-04 23:00:00 21.4 3 Sur 14 Sur 0 -- -- 79
2020-08-04 22:00:00 22 8 Sur 19 Sur 0 -- -- 76
2020-08-04 21:00:00 23.1 11 Sur 24 Sudoeste 0 -- -- 71
2020-08-04 20:00:00 24.9 13 Sur 31 Sur 0 -- -- 63
2020-08-04 19:00:00 26.3 18 Sur 32 Sudeste 0 -- -- 56
2020-08-04 18:00:00 27 14 Sur 34 Sur 0 -- -- 54
2020-08-04 17:00:00 27.1 17 Sur 43 Sur 0 -- -- 54
2020-08-04 16:00:00 27.6 18 Sur 38 Sur 0 -- -- 51
2020-08-04 15:00:00 27 18 Sur 43 Sur 0 -- -- 54
2020-08-04 14:00:00 30.4 10 Norte 26 Noroeste 0 -- -- 21
2020-08-04 13:00:00 28.6 4 Noroeste 14 Noroeste 0 -- -- 31
2020-08-04 12:00:00 26.4 7 Noroeste 19 Noroeste 0 -- -- 35
2020-08-04 11:00:00 24.6 7 Norte 22 Norte 0 -- -- 42
2020-08-04 10:00:00 22.5 7 Noroeste 18 Noroeste 0 -- -- 50
2020-08-04 09:00:00 19.8 9 Norte 22 Norte 0 -- -- 56
2020-08-04 08:00:00 19.1 11 Noroeste 22 Norte 0 -- -- 59
2020-08-04 07:00:00 19.3 13 Noroeste 24 Noroeste 0 -- -- 57
2020-08-04 06:00:00 19.1 7 Noroeste 15 Noroeste 0 -- -- 58
2020-08-04 05:00:00 18.5 4 Noroeste 9 Noroeste 0 -- -- 67
2020-08-04 04:00:00 18.4 2 Oeste 7 Norte 0 -- -- 87
2020-08-04 03:00:00 19 2 Sur 6 Sudoeste 0 -- -- 87
2020-08-04 02:00:00 19.6 0 Calma 6 Este 0 -- -- 86
2020-08-04 01:00:00 20.3 0 Calma 5 Sur 0 -- -- 84
2020-08-04 00:00:00 20.9 4 Sur 15 Sur 0 -- -- 82
2020-08-03 23:00:00 21.7 9 Sur 16 Sudoeste 0 -- -- 78
2020-08-03 22:00:00 22.7 7 Sur 20 Sur 0 -- -- 73
2020-08-03 21:00:00 24.4 9 Sur 22 Sudoeste 0 -- -- 67
2020-08-03 20:00:00 26.2 9 Sur 24 Sudoeste 0 -- -- 61
2020-08-03 19:00:00 27.1 13 Sur 31 Sur 0 -- -- 59
2020-08-03 18:00:00 27.2 18 Sur 41 Sur 0 -- -- 57
2020-08-03 17:00:00 28.4 19 Sur 40 Sur 0 -- -- 51
2020-08-03 16:00:00 28.1 22 Sur 41 Sur 0 -- -- 51
2020-08-03 15:00:00 28.6 17 Sur 36 Sur 0 -- -- 50
2020-08-03 14:00:00 29.8 9 Sudoeste 26 Sur 0 -- -- 44
2020-08-03 13:00:00 28.2 10 Sur 21 Sur 0 -- -- 44
2020-08-03 12:00:00 25.6 9 Sur 18 Sur 0 -- -- 49
2020-08-03 11:00:00 22.5 4 Noroeste 18 Noroeste 0 -- -- 55
2020-08-03 10:00:00 21.3 9 Norte 16 Noroeste 0 -- -- 60
2020-08-03 09:00:00 20.4 6 Noroeste 22 Noroeste 0 -- -- 63
2020-08-03 08:00:00 20.3 7 Noroeste 17 Oeste 0 -- -- 62
2020-08-03 07:00:00 20.8 9 Noroeste 18 Noroeste 0 -- -- 63
2020-08-03 06:00:00 21.3 8 Noroeste 19 Norte 0 -- -- 61
2020-08-03 05:00:00 21.6 7 Noroeste 17 Noroeste 0 -- -- 65
2020-08-03 04:00:00 21.4 3 Noroeste 8 Noroeste 0 -- -- 90
2020-08-03 03:00:00 21.5 2 Sur 6 Sur 0 -- -- 88
2020-08-03 02:00:00 21.8 2 Sudeste 5 Este 0 -- -- 89
2020-08-03 01:00:00 22.3 0 Calma 6 Sudeste 0 -- -- 87
2020-08-03 00:00:00 22.9 4 Sur 7 Sur 0 -- -- 86
2020-08-02 23:00:00 23.4 3 Sur 17 Sur 0 -- -- 83
2020-08-02 22:00:00 24.2 6 Sur 17 Sur 0 -- -- 81
2020-08-02 21:00:00 24.7 11 Sur 28 Sur 0 -- -- 79
2020-08-02 20:00:00 26 14 Sur 28 Sudoeste 0 -- -- 74
2020-08-02 19:00:00 26.8 13 Sur 32 Sudoeste 0 -- -- 69
2020-08-02 18:00:00 27.9 19 Sur 34 Sur 0 -- -- 65
2020-08-02 17:00:00 28.4 24 Sur 43 Sur 0 -- -- 63
2020-08-02 16:00:00 29.2 17 Sur 38 Sur 0 -- -- 61
2020-08-02 15:00:00 30.2 17 Sur 43 Sudoeste 0 -- -- 57
2020-08-02 14:00:00 31.4 17 Sur 32 Sudoeste 0 -- -- 51
2020-08-02 13:00:00 30.7 13 Sur 28 Sur 0 -- -- 52
2020-08-02 12:00:00 28.8 8 Sur 23 Sudoeste 0 -- -- 59
2020-08-02 11:00:00 26.8 6 Sur 15 Sur 0 -- -- 65
2020-08-02 10:00:00 24.1 0 Calma 5 Nordeste 0 -- -- 59
2020-08-02 09:00:00 20.5 0 Calma 14 Oeste 0 -- -- 72
2020-08-02 08:00:00 19.9 6 Noroeste 10 Noroeste 0 -- -- 76
2020-08-02 07:00:00 20.2 3 Norte 6 Norte 0 -- -- 73
2020-08-02 06:00:00 21.2 5 Noroeste 12 Noroeste 0 -- -- 67
2020-08-02 05:00:00 21.8 6 Noroeste 13 Noroeste 0 -- -- 69
2020-08-02 04:00:00 22.5 8 Norte 14 Norte 0 -- -- 68
2020-08-02 03:00:00 23.4 4 Noroeste 10 Noroeste 0 -- -- 77
2020-08-02 02:00:00 24 3 Noroeste 5 Noroeste 0 -- -- 81
2020-08-02 01:00:00 24.7 3 Noroeste 6 Norte 0 -- -- 80
2020-08-02 00:00:00 25.5 0 Calma 7 Norte 0 -- -- 78
2020-08-01 23:00:00 26.5 3 Norte 8 Norte 0 -- -- 75
2020-08-01 22:00:00 27.6 3 Sudeste 13 Sudoeste 0 -- -- 70
2020-08-01 21:00:00 29.1 7 Sur 30 Sudoeste 0 -- -- 65
2020-08-01 20:00:00 30.5 17 Sur 40 Sur 0 -- -- 60
2020-08-01 19:00:00 31.3 24 Sur 35 Sur 0 -- -- 58
2020-08-01 18:00:00 39 11 Noroeste 37 Noroeste 0 -- -- 15
2020-08-01 17:00:00 39.1 18 Noroeste 41 Noroeste 0 -- -- 13
2020-08-01 16:00:00 36.7 17 Sur 40 Oeste 0 -- -- 44
2020-08-01 15:00:00 36.2 6 Este 36 Oeste 0 -- -- 35
2020-08-01 14:00:00 35.4 14 Sur 33 Sur 0 -- -- 40
2020-08-01 13:00:00 34.1 21 Sur 32 Sur 0 -- -- 42
2020-08-01 12:00:00 33 13 Sur 27 Sur 0 -- -- 38
2020-08-01 11:00:00 28.1 2 Noroeste 4 Noroeste 0 -- -- 45
2020-08-01 10:00:00 25 3 Nordeste 8 Norte 0 -- -- 52
2020-08-01 09:00:00 22 6 Noroeste 17 Noroeste 0 -- -- 62
2020-08-01 08:00:00 21.1 10 Noroeste 15 Noroeste 0 -- -- 66
2020-08-01 07:00:00 21.3 0 Calma 10 Noroeste 0 -- -- 70
2020-08-01 06:00:00 21.6 5 Norte 13 Noroeste 0 -- -- 71
2020-08-01 05:00:00 22.1 5 Noroeste 13 Norte 0 -- -- 72
2020-08-01 04:00:00 22.7 6 Noroeste 10 Noroeste 0 -- -- 73
2020-08-01 03:00:00 23 4 Norte 10 Noroeste 0 -- -- 75
2020-08-01 02:00:00 23.6 4 Noroeste 8 Oeste 0 -- -- 74
2020-08-01 01:00:00 24.3 3 Noroeste 5 Oeste 0 -- -- 74
2020-08-01 00:00:00 25.1 2 Norte 5 Noroeste 0 -- -- 71
2020-07-31 23:00:00 25.9 4 Norte 9 Norte 0 -- -- 70
2020-07-31 22:00:00 27.5 3 Norte 9 Norte 0 -- -- 64
2020-07-31 21:00:00 28.8 9 Sur 28 Sur 0 -- -- 61
2020-07-31 20:00:00 30.7 17 Sur 35 Sur 0 -- -- 48
2020-07-31 19:00:00 31.6 17 Sur 35 Sur 0 -- -- 48
2020-07-31 18:00:00 32.6 19 Sur 38 Sur 0 -- -- 48
2020-07-31 17:00:00 34 16 Sur 28 Sur 0 -- -- 45
2020-07-31 16:00:00 34.7 13 Sur 30 Sur 0 -- -- 42
2020-07-31 15:00:00 34.7 16 Sur 33 Sur 0 -- -- 42
2020-07-31 14:00:00 35.5 15 Sur 33 Sur 0 -- -- 34
2020-07-31 13:00:00 35.3 15 Sur 29 Sur 0 -- -- 30
2020-07-31 12:00:00 33.8 5 Sudoeste 13 Sudeste 0 -- -- 30
2020-07-31 11:00:00 29.6 2 Norte 5 Norte 0 -- -- 39
2020-07-31 10:00:00 25.5 2 Norte 6 Noroeste 0 -- -- 49
2020-07-31 09:00:00 21.9 0 Calma 12 Noroeste 0 -- -- 58
2020-07-31 08:00:00 21 6 Noroeste 10 Noroeste 0 -- -- 60
2020-07-31 07:00:00 21.5 3 Noroeste 7 Noroeste 0 -- -- 61
2020-07-31 06:00:00 22.8 3 Norte 9 Este 0 -- -- 59
2020-07-31 05:00:00 24 3 Sur 20 Sur 0 -- -- 51
2020-07-31 04:00:00 25.6 14 Sur 24 Sur 0 -- -- 46
2020-07-31 03:00:00 25.4 6 Norte 23 Noroeste 0 -- -- 46
2020-07-31 02:00:00 25.8 4 Noroeste 22 Sudeste 0 -- -- 48
2020-07-31 01:00:00 26.2 4 Sur 12 Sudeste 0 -- -- 47
2020-07-31 00:00:00 28.3 4 Sudeste 24 Oeste 0 -- -- 36
2020-07-30 23:00:00 30.4 10 Oeste 65 Noroeste 0 -- -- 32
2020-07-30 22:00:00 27.6 5 Sur 18 Sur 0 -- -- 46
2020-07-30 21:00:00 28.4 11 Sur 22 Sur 0 -- -- 45
2020-07-30 20:00:00 30.5 13 Sur 28 Sudeste 0 -- -- 36
2020-07-30 19:00:00 32 13 Sur 29 Sur 0 -- -- 37
2020-07-30 18:00:00 32.7 14 Sur 38 Sudoeste 0 -- -- 34
2020-07-30 17:00:00 32.9 22 Sur 37 Sudoeste 0 -- -- 36
2020-07-30 16:00:00 33.8 14 Sur 38 Sur 0 -- -- 37
2020-07-30 15:00:00 33.8 17 Sur 36 Sur 0 -- -- 33
2020-07-30 14:00:00 33.5 14 Sur 33 Sur 0 -- -- 34
2020-07-30 13:00:00 32.3 12 Sur 29 Sudoeste 0 -- -- 33
2020-07-30 12:00:00 30.4 9 Sur 18 Sur 0 -- -- 36
2020-07-30 11:00:00 25.6 3 Noroeste 5 Noroeste 0 -- -- 53
2020-07-30 10:00:00 22.7 3 Nordeste 6 Norte 0 -- -- 56
2020-07-30 09:00:00 19.3 3 Norte 14 Norte 0 -- -- 68
2020-07-30 08:00:00 18 8 Noroeste 14 Noroeste 0 -- -- 75
2020-07-30 07:00:00 18.2 8 Noroeste 15 Noroeste 0 -- -- 75
2020-07-30 06:00:00 18.9 6 Noroeste 14 Noroeste 0 -- -- 76
2020-07-30 05:00:00 19.5 5 Noroeste 12 Noroeste 0 -- -- 75
2020-07-30 04:00:00 20 3 Noroeste 10 Noroeste 0 -- -- 75
2020-07-30 03:00:00 20.7 4 Noroeste 9 Norte 0 -- -- 75
2020-07-30 02:00:00 21.3 4 Noroeste 9 Norte 0 -- -- 74
2020-07-30 01:00:00 22.1 4 Noroeste 8 Noroeste 0 -- -- 71
2020-07-30 00:00:00 22.8 3 Noroeste 7 Norte 0 -- -- 69
2020-07-29 23:00:00 24.1 0 Calma 7 Nordeste 0 -- -- 63
2020-07-29 22:00:00 25.6 4 Sur 19 Sur 0 -- -- 58
2020-07-29 21:00:00 27.1 12 Sur 23 Sur 0 -- -- 48
2020-07-29 20:00:00 28.8 13 Sur 32 Sur 0 -- -- 51
2020-07-29 19:00:00 30.1 14 Sur 35 Sur 0 -- -- 48
2020-07-29 18:00:00 30.8 15 Sur 40 Sur 0 -- -- 45
2020-07-29 17:00:00 31.5 18 Sur 46 Sur 0 -- -- 43
2020-07-29 16:00:00 31.7 15 Sur 37 Sur 0 -- -- 42
2020-07-29 15:00:00 31 20 Sur 33 Sur 0 -- -- 43
2020-07-29 14:00:00 30.7 13 Sur 34 Sudoeste 0 -- -- 44
2020-07-29 13:00:00 29.5 10 Sur 26 Sur 0 -- -- 41
2020-07-29 12:00:00 28.4 13 Sur 26 Sur 0 -- -- 39
2020-07-29 11:00:00 26.7 10 Sur 17 Sudoeste 0 -- -- 43
2020-07-29 10:00:00 22.4 2 Norte 5 Norte 0 -- -- 57
2020-07-29 09:00:00 19.1 3 Noroeste 12 Noroeste 0 -- -- 66
2020-07-29 08:00:00 18.1 9 Noroeste 13 Noroeste 0 -- -- 70
2020-07-29 07:00:00 18.3 4 Noroeste 14 Noroeste 0 -- -- 73
2020-07-29 06:00:00 18.9 4 Noroeste 12 Norte 0 -- -- 71
2020-07-29 05:00:00 19.4 5 Noroeste 12 Noroeste 0 -- -- 71
2020-07-29 04:00:00 19.9 5 Noroeste 12 Noroeste 0 -- -- 69
2020-07-29 03:00:00 20.5 5 Noroeste 9 Norte 0 -- -- 67
2020-07-29 02:00:00 21.2 4 Noroeste 8 Noroeste 0 -- -- 65
2020-07-29 01:00:00 22.2 3 Noroeste 6 Noroeste 0 -- -- 62
2020-07-29 00:00:00 23.2 2 Noroeste 7 Nordeste 0 -- -- 59
2020-07-28 23:00:00 24.2 3 Norte 7 Norte 0 -- -- 55
2020-07-28 22:00:00 25.9 3 Sudoeste 15 Sur 0 -- -- 49
2020-07-28 21:00:00 27.7 10 Sur 22 Sur 0 -- -- 44
2020-07-28 20:00:00 29.8 16 Sur 33 Sur 0 -- -- 39
2020-07-28 19:00:00 31.2 18 Sur 32 Sur 0 -- -- 36
2020-07-28 18:00:00 32.3 14 Sur 38 Sur 0 -- -- 36
2020-07-28 17:00:00 33 16 Sur 40 Sur 0 -- -- 37
2020-07-28 16:00:00 33.5 15 Sur 36 Sur 0 -- -- 38
2020-07-28 15:00:00 33.8 17 Sur 34 Sudoeste 0 -- -- 40
2020-07-28 14:00:00 33.7 9 Sur 31 Sur 0 -- -- 36
2020-07-28 13:00:00 32.4 10 Sur 26 Sur 0 -- -- 37
2020-07-28 12:00:00 30 13 Sur 25 Sur 0 -- -- 39
2020-07-28 11:00:00 27.7 14 Sur 24 Sur 0 -- -- 41
2020-07-28 10:00:00 23.4 2 Oeste 5 Oeste 0 -- -- 56
2020-07-28 09:00:00 20.3 2 Nordeste 10 Noroeste 0 -- -- 68
2020-07-28 08:00:00 19.2 6 Noroeste 10 Noroeste 0 -- -- 72
2020-07-28 07:00:00 19.5 4 Noroeste 10 Noroeste 0 -- -- 73
2020-07-28 06:00:00 19.8 4 Noroeste 9 Noroeste 0 -- -- 73
2020-07-28 05:00:00 20.3 4 Noroeste 8 Oeste 0 -- -- 72
2020-07-28 04:00:00 20.9 4 Noroeste 9 Noroeste 0 -- -- 73
2020-07-28 03:00:00 21.6 2 Noroeste 6 Oeste 0 -- -- 71
2020-07-28 02:00:00 22.5 2 Norte 6 Noroeste 0 -- -- 69
2020-07-28 01:00:00 23.4 3 Norte 6 Este 0 -- -- 66
2020-07-28 00:00:00 24.3 0 Calma 6 Norte 0 -- -- 62
2020-07-27 23:00:00 25.6 3 Sudoeste 12 Sur 0 -- -- 57
2020-07-27 22:00:00 26.6 2 Oeste 19 Sur 0 -- -- 53
2020-07-27 21:00:00 27.9 13 Sur 25 Sur 0 -- -- 50
2020-07-27 20:00:00 30.5 13 Sur 29 Sur 0 -- -- 46
2020-07-27 19:00:00 32.7 14 Sur 24 Sur 0 -- -- 43
2020-07-27 18:00:00 34.2 10 Sudoeste 29 Sur 0 -- -- 41
2020-07-27 17:00:00 34.2 15 Sur 33 Sur 0 -- -- 41
2020-07-27 16:00:00 34.2 17 Sur 39 Sur 0 -- -- 43
2020-07-27 15:00:00 34.8 13 Sur 32 Sur 0 -- -- 40
2020-07-27 14:00:00 34.9 9 Sur 31 Sudoeste 0 -- -- 35
2020-07-27 13:00:00 34.1 9 Sur 20 Sudoeste 0 -- -- 32
2020-07-27 12:00:00 31.6 6 Sur 12 Sur 0 -- -- 35
2020-07-27 09:00:00 -- -- -- -- -- -- -- -- --
2020-07-27 08:00:00 -- -- -- -- -- -- -- -- --
2020-07-27 07:00:00 -- -- -- -- -- -- -- -- --
2020-07-27 06:00:00 -- -- -- -- -- -- -- -- --
2020-07-27 05:00:00 -- -- -- -- -- -- -- -- --
2020-07-27 04:00:00 19.7 4 Noroeste 9 Norte 0 -- -- 84
2020-07-27 03:00:00 20.4 4 Noroeste 8 Oeste 0 -- -- 82
2020-07-27 02:00:00 21.1 2 Noroeste 6 Sudoeste 0 -- -- 80
2020-07-27 01:00:00 21.8 0 Calma 5 Norte 0 -- -- 79
2020-07-27 00:00:00 22.5 0 Calma 5 Sur 0 -- -- 77
2020-07-26 23:00:00 23.2 2 Sur 13 Sudoeste 0 -- -- 75
2020-07-26 22:00:00 24.3 9 Sur 19 Sur 0 -- -- 68
2020-07-26 21:00:00 26.1 10 Sur 25 Sur 0 -- -- 58
2020-07-26 20:00:00 27.5 14 Sur 33 Sudoeste 0 -- -- 55
2020-07-26 19:00:00 28.4 19 Sur 36 Sur 0 -- -- 54
2020-07-26 18:00:00 29.3 18 Sur 39 Sur 0 -- -- 53
2020-07-26 17:00:00 30.4 16 Sur 35 Sur 0 -- -- 53
2020-07-26 16:00:00 31 14 Sur 34 Sur 0 -- -- 50
2020-07-26 15:00:00 31 19 Sur 37 Sudoeste 0 -- -- 49
2020-07-26 14:00:00 32.2 15 Sur 34 Sur 0 -- -- 39
2020-07-26 13:00:00 31.5 16 Sur 26 Sur 0 -- -- 38
2020-07-26 12:00:00 29.7 9 Sur 17 Sudoeste 0 -- -- 42
2020-07-26 11:00:00 26.1 3 Norte 6 Norte 0 -- -- 50
2020-07-26 10:00:00 22.6 3 Norte 6 Norte 0 -- -- 71
2020-07-26 09:00:00 19.5 2 Norte 14 Norte 0 -- -- 83
2020-07-26 08:00:00 18.5 4 Noroeste 12 Noroeste 0 -- -- 87
2020-07-26 07:00:00 18.7 5 Noroeste 9 Noroeste 0 -- -- 87
2020-07-26 06:00:00 19.1 3 Noroeste 8 Noroeste 0 -- -- 85
2020-07-26 05:00:00 19.5 2 Sudoeste 12 Noroeste 0 -- -- 85
2020-07-26 04:00:00 19.9 3 Noroeste 6 Noroeste 0 -- -- 84
2020-07-26 03:00:00 20.3 5 Noroeste 9 Noroeste 0 -- -- 84
2020-07-26 02:00:00 20.6 0 Calma 3 Sur 0 -- -- 82
2020-07-26 01:00:00 21.4 0 Calma 5 Norte 0 -- -- 79
2020-07-26 00:00:00 22.1 2 Noroeste 5 Norte 0 -- -- 78
2020-07-25 23:00:00 22.7 3 Nordeste 21 Sudoeste 0 -- -- 76
2020-07-25 22:00:00 23.5 11 Sur 20 Sur 0 -- -- 71
2020-07-25 21:00:00 25.3 11 Sur 22 Sur 0 -- -- 63
2020-07-25 20:00:00 26.8 12 Sur 28 Sudoeste 0 -- -- 59
2020-07-25 19:00:00 28 14 Sur 33 Sur 0 -- -- 55
2020-07-25 18:00:00 28.5 16 Sur 37 Sur 0 -- -- 52
2020-07-25 17:00:00 29.3 18 Sur 35 Sur 0 -- -- 52
2020-07-25 16:00:00 29.8 17 Sur 38 Sur 0 -- -- 52
2020-07-25 15:00:00 29.6 15 Sur 33 Sur 0 -- -- 52
2020-07-25 14:00:00 30.2 14 Sur 29 Sur 0 -- -- 41
2020-07-25 13:00:00 29 12 Sur 34 Sur 0 -- -- 38
2020-07-25 12:00:00 27.2 7 Sur 23 Sudoeste 0 -- -- 41
2020-07-25 11:00:00 25.2 10 Sur 19 Sur 0 -- -- 46
2020-07-25 10:00:00 21.5 0 Calma 5 Noroeste 0 -- -- 60
2020-07-25 09:00:00 18.5 4 Noroeste 12 Noroeste 0 -- -- 69
2020-07-25 08:00:00 17.4 7 Noroeste 13 Noroeste 0 -- -- 72
2020-07-25 07:00:00 17.7 5 Noroeste 13 Norte 0 -- -- 74
2020-07-25 06:00:00 18.2 8 Noroeste 15 Norte 0 -- -- 69
2020-07-25 05:00:00 18.7 4 Noroeste 11 Noroeste 0 -- -- 69
2020-07-25 04:00:00 19.4 4 Noroeste 9 Oeste 0 -- -- 67
2020-07-25 03:00:00 20 0 Calma 6 Oeste 0 -- -- 64
2020-07-25 02:00:00 20.6 3 Oeste 10 Noroeste 0 -- -- 62
2020-07-25 01:00:00 21.2 3 Noroeste 7 Norte 0 -- -- 61
2020-07-25 00:00:00 21.8 0 Calma 5 Norte 0 -- -- 59
2020-07-24 23:00:00 22.9 0 Calma 9 Sur 0 -- -- 56
2020-07-24 22:00:00 24.1 5 Sur 18 Sur 0 -- -- 50
2020-07-24 21:00:00 25.9 8 Sur 22 Sudoeste 0 -- -- 43
2020-07-24 20:00:00 27.4 11 Sur 33 Sur 0 -- -- 41
2020-07-24 19:00:00 28 21 Sur 36 Sur 0 -- -- 43
2020-07-24 18:00:00 29.2 19 Sur 36 Sur 0 -- -- 41
2020-07-24 17:00:00 29.6 22 Sur 36 Sur 0 -- -- 38
2020-07-24 16:00:00 30.6 18 Sur 40 Sudoeste 0 -- -- 35
2020-07-24 15:00:00 30.8 17 Sur 36 Sur 0 -- -- 34
2020-07-24 14:00:00 30.7 15 Sur 34 Sur 0 -- -- 32
2020-07-24 13:00:00 29.7 10 Sur 25 Sur 0 -- -- 33
2020-07-24 12:00:00 27.7 13 Sur 24 Sur 0 -- -- 37
2020-07-24 11:00:00 25.3 12 Sur 19 Sur 0 -- -- 39
2020-07-24 10:00:00 21.4 3 Nordeste 6 Oeste 0 -- -- 53
2020-07-24 09:00:00 18.3 5 Noroeste 21 Noroeste 0 -- -- 66
2020-07-24 08:00:00 18.5 7 Noroeste 13 Noroeste 0 -- -- 61
2020-07-24 07:00:00 18.6 7 Noroeste 12 Noroeste 0 -- -- 59
2020-07-24 06:00:00 19.3 3 Noroeste 13 Norte 0 -- -- 56
2020-07-24 05:00:00 19.5 9 Noroeste 14 Oeste 0 -- -- 58
2020-07-24 04:00:00 20 4 Noroeste 8 Norte 0 -- -- 57
2020-07-24 03:00:00 20.6 2 Noroeste 6 Noroeste 0 -- -- 56
2020-07-24 02:00:00 21.4 3 Noroeste 6 Noroeste 0 -- -- 53
2020-07-24 01:00:00 22.2 3 Norte 7 Noroeste 0 -- -- 52
2020-07-24 00:00:00 22.9 3 Norte 5 Norte 0 -- -- 50
2020-07-23 23:00:00 24.3 0 Calma 8 Sur 0 -- -- 42
2020-07-23 22:00:00 25.3 3 Sur 21 Sur 0 -- -- 40
2020-07-23 21:00:00 27.4 12 Sur 24 Sur 0 -- -- 34
2020-07-23 20:00:00 30.3 13 Sur 28 Sur 0 -- -- 30
2020-07-23 19:00:00 31.6 12 Sur 35 Sur 0 -- -- 26
2020-07-23 18:00:00 32.1 11 Sur 36 Sur 0 -- -- 26
2020-07-23 17:00:00 32.5 19 Sur 39 Sur 0 -- -- 23
2020-07-23 16:00:00 33 18 Sur 32 Sur 0 -- -- 20
2020-07-23 15:00:00 33 15 Sur 27 Sur 0 -- -- 17
2020-07-23 14:00:00 32.2 12 Sur 32 Sur 0 -- -- 20
2020-07-23 13:00:00 30.7 15 Sur 30 Sur 0 -- -- 21
2020-07-23 12:00:00 29.1 16 Sur 25 Sur 0 -- -- 25
2020-07-23 11:00:00 23.9 2 Noroeste 5 Norte 0 -- -- 39
2020-07-23 10:00:00 21 3 Nordeste 5 Nordeste 0 -- -- 44
2020-07-23 09:00:00 16.5 2 Noroeste 14 Noroeste 0 -- -- 57
2020-07-23 08:00:00 15 10 Noroeste 16 Noroeste 0 -- -- 61
2020-07-23 07:00:00 14.9 6 Norte 15 Norte 0 -- -- 65
2020-07-23 06:00:00 15.2 8 Norte 15 Noroeste 0 -- -- 63
2020-07-23 05:00:00 15.4 10 Norte 18 Norte 0 -- -- 64
2020-07-23 04:00:00 16.5 9 Noroeste 15 Noroeste 0 -- -- 61
2020-07-23 03:00:00 17.3 8 Noroeste 17 Norte 0 -- -- 60
2020-07-23 02:00:00 18.2 9 Noroeste 15 Noroeste 0 -- -- 61
2020-07-23 01:00:00 19 3 Noroeste 9 Noroeste 0 -- -- 60
2020-07-23 00:00:00 20 4 Noroeste 8 Noroeste 0 -- -- 57
2020-07-22 23:00:00 21.1 2 Noroeste 7 Noroeste 0 -- -- 55
2020-07-22 22:00:00 22.8 3 Norte 8 Norte 0 -- -- 51
2020-07-22 21:00:00 25.6 3 Noroeste 6 Norte 0 -- -- 45
2020-07-22 20:00:00 26.8 5 Sudoeste 17 Sur 0 -- -- 35
2020-07-22 19:00:00 27.5 12 Sur 19 Sur 0 -- -- 36
2020-07-22 18:00:00 27.2 10 Sur 21 Sur 0 -- -- 37
2020-07-22 17:00:00 26.7 12 Sur 26 Sur 0 -- -- 42
2020-07-22 16:00:00 26.8 15 Sur 32 Sur 0.2 -- -- 44
2020-07-22 15:00:00 26 5 Noroeste 30 Sudoeste 0 -- -- 42
2020-07-22 14:00:00 24.7 8 Sur 31 Sur 0.4 -- -- 53
2020-07-22 13:00:00 25 4 Oeste 12 Sur 0 -- -- 44
2020-07-22 12:00:00 22.6 5 Oeste 14 Norte 0.2 -- -- 58
2020-07-22 11:00:00 21.5 9 Noroeste 17 Norte 0 -- -- 59
2020-07-22 10:00:00 19.7 4 Noroeste 17 Norte 0 -- -- 66
2020-07-22 09:00:00 18.9 6 Noroeste 15 Noroeste 0 -- -- 67
2020-07-22 08:00:00 17.7 4 Norte 13 Noroeste 0 -- -- 73
2020-07-22 07:00:00 17.6 3 Noroeste 9 Noroeste 0 -- -- 74
2020-07-22 06:00:00 17.8 3 Noroeste 12 Noroeste 0 -- -- 79
2020-07-22 05:00:00 18.5 4 Noroeste 13 Sudeste 0 -- -- 79
2020-07-22 04:00:00 19.3 8 Noroeste 15 Noroeste 0 -- -- 70
2020-07-22 03:00:00 19.4 3 Oeste 8 Oeste 0 -- -- 73
2020-07-22 02:00:00 20.2 0 Calma 5 Noroeste 0 -- -- 70
2020-07-22 01:00:00 20.9 2 Sur 6 Sur 0 -- -- 68
2020-07-22 00:00:00 21.3 0 Calma 5 Nordeste 0 -- -- 68
2020-07-21 23:00:00 22.7 2 Norte 8 Sur 0 -- -- 61
2020-07-21 22:00:00 23.7 3 Sur 15 Sur 0 -- -- 59
2020-07-21 21:00:00 25.3 9 Sur 24 Sur 0 -- -- 54
2020-07-21 20:00:00 27.2 10 Sur 30 Sudoeste 0 -- -- 49
2020-07-21 19:00:00 28 18 Sur 35 Sudoeste 0 -- -- 49
2020-07-21 18:00:00 29.6 15 Sur 31 Sur 0 -- -- 48
2020-07-21 17:00:00 30 10 Sur 31 Sudeste 0 -- -- 49
2020-07-21 16:00:00 29.6 15 Sur 39 Sur 0 -- -- 53
2020-07-21 15:00:00 29.9 15 Sur 42 Sudeste 0 -- -- 53
2020-07-21 14:00:00 30.1 13 Sur 31 Sur 0 -- -- 47
2020-07-21 13:00:00 29.7 16 Sur 28 Sur 0 -- -- 44
2020-07-21 12:00:00 28.3 13 Sur 24 Sudoeste 0 -- -- 41
2020-07-21 11:00:00 25.1 3 Sudoeste 9 Sudeste 0 -- -- 61
2020-07-21 10:00:00 22 2 Noroeste 11 Noroeste 0 -- -- 79
2020-07-21 09:00:00 19.8 6 Noroeste 12 Noroeste 0 -- -- 88
2020-07-21 08:00:00 19.4 5 Oeste 12 Oeste 0 -- -- 90
2020-07-21 07:00:00 19.4 3 Sudoeste 10 Noroeste 0 -- -- 90
2020-07-21 06:00:00 19.4 6 Noroeste 14 Noroeste 0 -- -- 91
2020-07-21 05:00:00 19.7 8 Noroeste 13 Noroeste 0 -- -- 92
2020-07-21 04:00:00 20 6 Noroeste 13 Noroeste 0 -- -- 92
2020-07-21 03:00:00 20 5 Noroeste 8 Noroeste 0 -- -- 93
2020-07-21 02:00:00 19.6 3 Sur 5 Este 0 -- -- 91
2020-07-21 01:00:00 20.4 3 Sudeste 6 Este 0 -- -- 90
2020-07-21 00:00:00 21.1 0 Calma 7 Sur 0 -- -- 88
2020-07-20 23:00:00 21.4 6 Sur 21 Sur 0 -- -- 87
2020-07-20 22:00:00 22.2 14 Sur 20 Sur 0 -- -- 86
2020-07-20 21:00:00 22.7 11 Sur 22 Sudoeste 0 -- -- 85
2020-07-20 20:00:00 23.1 16 Sur 25 Sudoeste 0 -- -- 84
2020-07-20 19:00:00 24.2 12 Sur 31 Sudoeste 0 -- -- 80
2020-07-20 18:00:00 26.5 15 Sur 39 Sur 0 -- -- 72
2020-07-20 17:00:00 27.9 18 Sur 39 Sur 0 -- -- 67
2020-07-20 16:00:00 28.9 19 Sur 38 Sur 0 -- -- 63
2020-07-20 15:00:00 28.9 15 Sur 32 Sur 0 -- -- 60
2020-07-20 14:00:00 28.1 13 Sur 28 Sur 0 -- -- 61
2020-07-20 13:00:00 26.5 14 Sur 24 Sur 0 -- -- 63
2020-07-20 12:00:00 24.3 12 Sur 20 Sudoeste 0 -- -- 75
2020-07-20 11:00:00 22.6 4 Sudoeste 9 Sur 0 -- -- 80
2020-07-20 10:00:00 21.4 3 Noroeste 6 Oeste 0 -- -- 85
2020-07-20 09:00:00 20.3 0 Calma 5 Noroeste 0 -- -- 93
2020-07-20 08:00:00 19.7 0 Calma 5 Norte 0 -- -- 95
2020-07-20 07:00:00 19.6 2 Norte 6 Sudeste 0 -- -- 95
2020-07-20 06:00:00 19.6 0 Calma 7 Sur 0.2 -- -- 94
2020-07-20 05:00:00 19.9 0 Calma 10 Sur 0.2 -- -- 93
2020-07-20 04:00:00 20.2 0 Calma 4 Norte 0 -- -- 86
2020-07-20 03:00:00 20.6 3 Sudeste 5 Oeste 0 -- -- 86
2020-07-20 02:00:00 21.1 3 Oeste 14 Noroeste 0 -- -- 85
2020-07-20 01:00:00 20.9 0 Calma -- -- 0 -- -- 84
2020-07-20 00:00:00 21.5 0 Calma 4 Sudoeste 0 -- -- 83
2020-07-19 23:00:00 21.8 0 Calma 21 Sur 0 -- -- 82
2020-07-19 22:00:00 22.5 10 Sur 17 Sur 0 -- -- 79
2020-07-19 21:00:00 23.5 8 Sudoeste 24 Sur 0 -- -- 75
2020-07-19 20:00:00 24.8 11 Sur 30 Sur 0 -- -- 70
2020-07-19 19:00:00 24.9 17 Sur 32 Sur 0 -- -- 69
2020-07-19 18:00:00 25.2 12 Sur 38 Sur 0 -- -- 68
2020-07-19 17:00:00 25.9 17 Sur 39 Sur 0 -- -- 70
2020-07-19 16:00:00 27.5 25 Sur 44 Sur 0 -- -- 67
2020-07-19 15:00:00 28.5 21 Sur 39 Sur 0 -- -- 63
2020-07-19 14:00:00 29.6 15 Sur 34 Sur 0 -- -- 56
2020-07-19 13:00:00 30.2 10 Sur 25 Sur 0 -- -- 46
2020-07-19 12:00:00 28.8 10 Sur 22 Sur 0 -- -- 46
2020-07-19 11:00:00 24.7 4 Noroeste 7 Noroeste 0 -- -- 62
2020-07-19 10:00:00 23.1 3 Nordeste 5 Nordeste 0 -- -- 69
2020-07-19 09:00:00 19.2 3 Noroeste 13 Noroeste 0 -- -- 84
2020-07-19 08:00:00 18.1 6 Noroeste 12 Norte 0 -- -- 89
2020-07-19 07:00:00 18.2 7 Noroeste 14 Noroeste 0 -- -- 90
2020-07-19 06:00:00 18.7 4 Noroeste 8 Noroeste 0 -- -- 90
2020-07-19 05:00:00 19.1 3 Noroeste 6 Oeste 0 -- -- 89
2020-07-19 04:00:00 19.5 0 Calma 7 Noroeste 0 -- -- 87
2020-07-19 03:00:00 20 3 Noroeste 8 Oeste 0 -- -- 87
2020-07-19 02:00:00 20.3 3 Oeste 6 Oeste 0 -- -- 87
2020-07-19 01:00:00 20.7 0 Calma 5 Noroeste 0 -- -- 84
2020-07-19 00:00:00 21.1 0 Calma 4 Sudoeste 0 -- -- 82
2020-07-18 23:00:00 21.5 3 Sudoeste 17 Sudoeste 0 -- -- 81
2020-07-18 22:00:00 22.4 11 Sur 21 Sur 0 -- -- 77
2020-07-18 21:00:00 23.6 16 Sur 27 Sudoeste 0 -- -- 72
2020-07-18 20:00:00 25.8 15 Sur 33 Sudeste 0 -- -- 66
2020-07-18 19:00:00 26.6 16 Sur 32 Sur 0 -- -- 63
2020-07-18 18:00:00 27.4 16 Sur 36 Sudoeste 0 -- -- 60
2020-07-18 17:00:00 27.8 18 Sur 41 Sur 0 -- -- 59
2020-07-18 16:00:00 28.7 18 Sur 37 Sur 0 -- -- 56
2020-07-18 15:00:00 29.2 14 Sur 32 Sur 0 -- -- 53
2020-07-18 14:00:00 28.4 12 Sur 30 Sur 0 -- -- 51
2020-07-18 13:00:00 27.4 12 Sur 27 Sudoeste 0 -- -- 51
2020-07-18 12:00:00 25.8 11 Sur 26 Sur 0 -- -- 54
2020-07-18 11:00:00 24.2 6 Sur 14 Sudeste 0 -- -- 61
2020-07-18 10:00:00 21 2 Norte 4 Noroeste 0 -- -- 74
2020-07-18 09:00:00 18 0 Calma 10 Norte 0 -- -- 86
2020-07-18 08:00:00 16.8 6 Noroeste 10 Noroeste 0 -- -- 89
2020-07-18 07:00:00 17 8 Noroeste 13 Noroeste 0 -- -- 88
2020-07-18 06:00:00 17.5 6 Noroeste 12 Oeste 0 -- -- 89
2020-07-18 05:00:00 17.9 4 Noroeste 8 Noroeste 0 -- -- 92
2020-07-18 04:00:00 17.9 0 Calma 3 Sur 0 -- -- 91
2020-07-18 03:00:00 18.4 0 Calma 3 Sudoeste 0 -- -- 90
2020-07-18 02:00:00 19 0 Calma 4 Sur 0 -- -- 89
2020-07-18 01:00:00 19.8 0 Calma 5 Sur 0 -- -- 86
2020-07-18 00:00:00 20.7 2 Sur 10 Sur 0 -- -- 83
2020-07-17 23:00:00 20.8 7 Sur 15 Sur 0 -- -- 84
2020-07-17 22:00:00 21.5 7 Sur 23 Sudoeste 0 -- -- 80
2020-07-17 21:00:00 23 13 Sur 28 Sur 0 -- -- 72
2020-07-17 20:00:00 25.1 15 Sur 30 Sur 0 -- -- 66
2020-07-17 19:00:00 26.9 14 Sur 31 Sur 0 -- -- 60
2020-07-17 18:00:00 27.2 14 Sur 32 Sudoeste 0 -- -- 61
2020-07-17 17:00:00 26.3 16 Sur 35 Sudoeste 0 -- -- 64
2020-07-17 16:00:00 26.4 19 Sur 32 Sur 0 -- -- 64
2020-07-17 15:00:00 27.6 15 Sur 40 Sur 0 -- -- 59
2020-07-17 14:00:00 27.7 9 Sur 28 Sur 0 -- -- 56
2020-07-17 13:00:00 25.9 12 Sur 25 Sur 0 -- -- 62
2020-07-17 12:00:00 24.1 10 Sur 18 Sur 0 -- -- 65
2020-07-17 11:00:00 22 6 Sudoeste 13 Sur 0 -- -- 67
2020-07-17 10:00:00 20 2 Noroeste 8 Noroeste 0 -- -- 70
2020-07-17 09:00:00 18.3 5 Noroeste 11 Norte 0 -- -- 76
2020-07-17 08:00:00 17.2 9 Noroeste 13 Norte 0 -- -- 82
2020-07-17 07:00:00 17.4 7 Noroeste 10 Noroeste 0 -- -- 88
2020-07-17 06:00:00 17.9 6 Noroeste 10 Norte 0 -- -- 91
2020-07-17 05:00:00 18.3 0 Calma 6 Oeste 0 -- -- 91
2020-07-17 04:00:00 18.3 0 Calma 3 Oeste 0 -- -- 91
2020-07-17 03:00:00 18.6 0 Calma 5 Sudeste 0 -- -- 90
2020-07-17 02:00:00 19.2 3 Sudeste 8 Sudeste 0 -- -- 88
2020-07-17 01:00:00 19.9 2 Sudeste 9 Sudeste 0 -- -- 88
2020-07-17 00:00:00 20.7 3 Sudeste 6 Sudeste 0 -- -- 86
2020-07-16 23:00:00 21.4 2 Sur 12 Sur 0 -- -- 83
2020-07-16 22:00:00 21.9 8 Sur 20 Sur 0 -- -- 81
2020-07-16 21:00:00 23.8 13 Sur 26 Sur 0 -- -- 73
2020-07-16 20:00:00 25.4 11 Sur 24 Sur 0 -- -- 65
2020-07-16 19:00:00 26.3 10 Sur 26 Sudoeste 0 -- -- 61
2020-07-16 18:00:00 26.3 17 Sur 35 Sur 0 -- -- 60
2020-07-16 17:00:00 26.6 15 Sur 36 Sur 0 -- -- 57
2020-07-16 16:00:00 27 16 Sur 35 Sur 0 -- -- 53
2020-07-16 15:00:00 27.7 14 Sur 33 Sur 0 -- -- 50
2020-07-16 14:00:00 27.4 13 Sur 31 Sur 0 -- -- 52
2020-07-16 13:00:00 27.2 12 Sur 30 Sur 0 -- -- 52
2020-07-16 12:00:00 25.6 11 Sur 24 Sur 0 -- -- 53
2020-07-16 11:00:00 23.9 7 Sur 19 Sur 0 -- -- 60
2020-07-16 10:00:00 22 0 Calma 4 Nordeste 0 -- -- 56
2020-07-16 09:00:00 18.5 0 Calma 5 Noroeste 0 -- -- 66
2020-07-16 08:00:00 17.1 0 Calma 8 Norte 0 -- -- 88
2020-07-16 07:00:00 17.7 3 Noroeste 10 Norte 0 -- -- 81
2020-07-16 06:00:00 17.8 0 Calma 7 Noroeste 0 -- -- 91
2020-07-16 05:00:00 18 2 Noroeste 7 Oeste 0 -- -- 90
2020-07-16 04:00:00 18.4 3 Noroeste 7 Oeste 0 -- -- 92
2020-07-16 03:00:00 18.5 0 Calma 5 Sudeste 0 -- -- 88
2020-07-16 02:00:00 19.2 2 Sudeste 5 Este 0 -- -- 86
2020-07-16 01:00:00 19.8 0 Calma 6 Sudeste 0 -- -- 83
2020-07-16 00:00:00 20.5 0 Calma 10 Sur 0 -- -- 82
2020-07-15 23:00:00 21.4 5 Sur 21 Sur 0 -- -- 80
2020-07-15 22:00:00 22.3 12 Sur 22 Sur 0 -- -- 78
2020-07-15 21:00:00 23.7 11 Sur 23 Sur 0 -- -- 72
2020-07-15 20:00:00 25.5 12 Sur 27 Sudoeste 0 -- -- 65
2020-07-15 19:00:00 26 13 Sur 29 Sur 0 -- -- 62
2020-07-15 18:00:00 26.6 14 Sur 31 Sur 0 -- -- 59
2020-07-15 17:00:00 25.7 18 Sur 36 Sudoeste 0 -- -- 61
2020-07-15 16:00:00 26.6 15 Sur 33 Sudoeste 0 -- -- 57
2020-07-15 15:00:00 27.8 12 Sur 26 Sur 0 -- -- 49
2020-07-15 14:00:00 27.2 10 Sur 24 Sur 0 -- -- 46
2020-07-15 13:00:00 26.9 6 Sudoeste 18 Sur 0 -- -- 43
2020-07-15 12:00:00 25 4 Nordeste 9 Este 0 -- -- 46
2020-07-15 11:00:00 22.1 3 Oeste 5 Noroeste 0 -- -- 54
2020-07-15 10:00:00 19.7 0 Calma 4 Nordeste 0 -- -- 62
2020-07-15 09:00:00 16.2 3 Norte 12 Noroeste 0 -- -- 77
2020-07-15 08:00:00 14.6 7 Noroeste 13 Noroeste 0 -- -- 85
2020-07-15 07:00:00 14.8 5 Noroeste 13 Noroeste 0 -- -- 88
2020-07-15 06:00:00 15.3 7 Noroeste 13 Noroeste 0 -- -- 89
2020-07-15 05:00:00 15.9 7 Noroeste 13 Noroeste 0 -- -- 90
2020-07-15 04:00:00 16.4 5 Noroeste 12 Noroeste 0 -- -- 91
2020-07-15 03:00:00 16.5 5 Noroeste 11 Oeste 0 -- -- 92
2020-07-15 02:00:00 16.9 0 Calma 5 Noroeste 0 -- -- 90
2020-07-15 01:00:00 17.8 0 Calma 9 Norte 0 -- -- 87
2020-07-15 00:00:00 18.3 4 Noroeste 9 Noroeste 0 -- -- 85
2020-07-14 23:00:00 18.3 4 Noroeste 9 Noroeste 0 -- -- 87
2020-07-14 22:00:00 19.3 2 Sudeste 8 Sur 0 -- -- 81
2020-07-14 21:00:00 21.3 2 Nordeste 14 Sudeste 0 -- -- 71
2020-07-14 20:00:00 21.8 5 Sur 11 Sur 0 -- -- 71
2020-07-14 19:00:00 19.2 2 Sudeste 11 Sur 0 -- -- 83
2020-07-14 18:00:00 18.8 5 Sur 13 Sur 0.6 -- -- 86
2020-07-14 17:00:00 20.6 6 Sur 39 Sur 0.4 -- -- 77
2020-07-14 16:00:00 22.9 15 Sur 26 Sudoeste 0 -- -- 53
2020-07-14 15:00:00 24.2 5 Sur 27 Sur 0 -- -- 57
2020-07-14 14:00:00 25.7 13 Sur 32 Sur 0 -- -- 52
2020-07-14 13:00:00 26.1 14 Sur 33 Sur 0 -- -- 47
2020-07-14 12:00:00 26 11 Sur 26 Sur 0 -- -- 50
2020-07-14 11:00:00 24.8 5 Norte 13 Noroeste 0 -- -- 57
2020-07-14 10:00:00 22.7 4 Noroeste 8 Noroeste 0 -- -- 71
2020-07-14 09:00:00 21.4 3 Nordeste 7 Noroeste 0 -- -- 77
2020-07-14 08:00:00 20.6 4 Noroeste 10 Norte 0 -- -- 81
2020-07-14 07:00:00 20.3 0 Calma 3 Sudoeste 0 -- -- 86
2020-07-14 06:00:00 20.4 0 Calma 9 Sur 0 -- -- 87
2020-07-14 05:00:00 20.5 0 Calma 6 Sur 0 -- -- 87
2020-07-14 04:00:00 20.4 3 Sudeste 4 Sudeste 0 -- -- 86
2020-07-14 03:00:00 20.3 0 Calma 5 Sudeste 0 -- -- 87
2020-07-14 02:00:00 20.3 0 Calma 3 Este 0 -- -- 86
2020-07-14 01:00:00 20.9 0 Calma 4 Nordeste 0 -- -- 85
2020-07-14 00:00:00 21.2 3 Sur 14 Sur 0 -- -- 84
2020-07-13 23:00:00 21.7 8 Sur 17 Sur 0 -- -- 81
2020-07-13 22:00:00 22.5 10 Sur 20 Sur 0 -- -- 78
2020-07-13 21:00:00 23.6 11 Sur 24 Sur 0 -- -- 72
2020-07-13 20:00:00 24.5 14 Sur 28 Sur 0 -- -- 68
2020-07-13 19:00:00 26.3 8 Sur 31 Sudoeste 0.2 -- -- 68
2020-07-13 18:00:00 26.9 20 Sur 36 Sur 0 -- -- 62
2020-07-13 17:00:00 28 18 Sur 34 Sudoeste 0 -- -- 55
2020-07-13 16:00:00 28 13 Sur 32 Sur 0 -- -- 55
2020-07-13 15:00:00 27.7 12 Sur 28 Sudoeste 0 -- -- 56
2020-07-13 14:00:00 27.3 14 Sur 25 Sur 0 -- -- 54
2020-07-13 13:00:00 26.6 10 Sur 20 Sur 0 -- -- 54
2020-07-13 12:00:00 26.3 8 Sur 17 Sur 0 -- -- 55
2020-07-13 11:00:00 23.7 2 Noroeste 6 Noroeste 0 -- -- 63
2020-07-13 10:00:00 21.4 2 Noroeste 7 Oeste 0 -- -- 74
2020-07-13 09:00:00 19.1 4 Noroeste 12 Noroeste 0 -- -- 83
2020-07-13 08:00:00 17.9 6 Norte 10 Noroeste 0 -- -- 90
2020-07-13 07:00:00 18.4 2 Noroeste 13 Noroeste 0 -- -- 89
2020-07-13 06:00:00 18.8 5 Norte 8 Norte 0 -- -- 90
2020-07-13 05:00:00 18.6 0 Calma 4 Noroeste 0 -- -- 93
2020-07-13 04:00:00 19.1 2 Norte 19 Oeste 0 -- -- 92
2020-07-13 03:00:00 19.6 6 Noroeste 11 Noroeste 0 -- -- 91
2020-07-13 02:00:00 19.5 2 Noroeste 9 Oeste 0 -- -- 94
2020-07-13 01:00:00 19.8 4 Este 12 Noroeste 0.4 -- -- 94
2020-07-13 00:00:00 19.9 3 Noroeste 16 Sur 0 -- -- 92
2020-07-12 23:00:00 20.4 3 Nordeste 9 Sudoeste 0 -- -- 89
2020-07-12 22:00:00 21 4 Oeste 11 Oeste 0 -- -- 88
2020-07-12 21:00:00 21.2 3 Oeste 20 Sur 0 -- -- 89
2020-07-12 20:00:00 21.3 3 Este 14 Sur 0.4 -- -- 88
2020-07-12 19:00:00 22.3 14 Sur 32 Sur 0 -- -- 80
2020-07-12 18:00:00 23.1 13 Sur 28 Sur 0.2 -- -- 77
2020-07-12 17:00:00 25.5 11 Sur 24 Sur 0 -- -- 64
2020-07-12 16:00:00 25.9 12 Sudoeste 28 Sur 0 -- -- 63
2020-07-12 15:00:00 27.3 14 Sur 44 Sur 0 -- -- 52
2020-07-12 14:00:00 28.3 17 Sur 36 Sur 0 -- -- 50
2020-07-12 13:00:00 28 13 Sur 30 Sur 0 -- -- 49
2020-07-12 12:00:00 26.1 10 Sur 21 Sur 0 -- -- 50
2020-07-12 11:00:00 22.3 3 Noroeste 6 Noroeste 0 -- -- 73
2020-07-12 10:00:00 19.7 2 Norte 9 Norte 0 -- -- 79
2020-07-12 09:00:00 18 4 Noroeste 13 Noroeste 0 -- -- 86
2020-07-12 08:00:00 17.4 4 Noroeste 10 Norte 0 -- -- 89
2020-07-12 07:00:00 17.1 7 Noroeste 13 Norte 0 -- -- 90
2020-07-12 06:00:00 17.6 6 Noroeste 14 Noroeste 0 -- -- 90
2020-07-12 05:00:00 18.1 6 Noroeste 12 Noroeste 0 -- -- 89
2020-07-12 04:00:00 18.5 5 Noroeste 10 Norte 0 -- -- 91
2020-07-12 03:00:00 18.8 0 Calma 7 Noroeste 0 -- -- 90
2020-07-12 02:00:00 19.4 3 Noroeste 7 Oeste 0 -- -- 89
2020-07-12 01:00:00 19.8 0 Calma 4 Sudoeste 0 -- -- 87
2020-07-12 00:00:00 20.6 2 Sur 7 Sudeste 0 -- -- 85
2020-07-11 23:00:00 21.3 2 Sur 8 Sur 0 -- -- 82
2020-07-11 22:00:00 22.1 8 Sur 19 Sur 0 -- -- 79
2020-07-11 21:00:00 23.7 12 Sur 25 Sur 0 -- -- 72
2020-07-11 20:00:00 25.5 14 Sur 28 Sur 0 -- -- 65
2020-07-11 19:00:00 26.8 14 Sur 31 Sur 0 -- -- 61
2020-07-11 18:00:00 27.5 16 Sur 35 Sur 0 -- -- 57
2020-07-11 17:00:00 27.7 17 Sur 40 Sudoeste 0 -- -- 56
2020-07-11 16:00:00 27.4 19 Sur 39 Sur 0 -- -- 57
2020-07-11 15:00:00 27.6 16 Sur 40 Sur 0 -- -- 55
2020-07-11 14:00:00 28 21 Sur 42 Sur 0 -- -- 51
2020-07-11 13:00:00 28 8 Sur 31 Sur 0 -- -- 48
2020-07-11 12:00:00 26.4 15 Sur 28 Sudoeste 0 -- -- 52
2020-07-11 11:00:00 25 13 Sur 23 Sudoeste 0 -- -- 54
2020-07-11 10:00:00 21.9 2 Norte 4 Norte 0 -- -- 59
2020-07-11 09:00:00 19.2 2 Norte 8 Noroeste 0 -- -- 72
2020-07-11 08:00:00 17.9 0 Calma 12 Noroeste 0 -- -- 79
2020-07-11 07:00:00 18.1 8 Noroeste 11 Noroeste 0 -- -- 80
2020-07-11 06:00:00 18.6 5 Noroeste 13 Noroeste 0 -- -- 81
2020-07-11 05:00:00 19 6 Noroeste 12 Noroeste 0 -- -- 82
2020-07-11 04:00:00 19.7 3 Noroeste 10 Noroeste 0 -- -- 81
2020-07-11 03:00:00 20.4 0 Calma 5 Oeste 0 -- -- 78
2020-07-11 02:00:00 21.3 0 Calma 5 Norte 0 -- -- 76
2020-07-11 01:00:00 22.6 0 Calma 6 Norte 0 -- -- 68
2020-07-11 00:00:00 23.6 0 Calma 8 Sur 0 -- -- 65
2020-07-10 23:00:00 24.2 2 Sudoeste 5 Sur 0 -- -- 62
2020-07-10 22:00:00 24.8 0 Calma 13 Sur 0 -- -- 61
2020-07-10 21:00:00 25.4 8 Sur 15 Sur 0 -- -- 57
2020-07-10 20:00:00 26.6 7 Sur 32 Sur 0 -- -- 53
2020-07-10 19:00:00 27.1 21 Sur 35 Sur 0 -- -- 50
2020-07-10 18:00:00 27.6 15 Sur 32 Sur 0 -- -- 46
2020-07-10 17:00:00 27.8 15 Sur 37 Sur 0 -- -- 46
2020-07-10 16:00:00 28.1 17 Sur 38 Sur 0 -- -- 44
2020-07-10 15:00:00 29.8 17 Sur 38 Sur 0 -- -- 41
2020-07-10 14:00:00 29.2 15 Sur 32 Sur 0 -- -- 41
2020-07-10 13:00:00 28.2 15 Sur 29 Sur 0 -- -- 45
2020-07-10 12:00:00 27.2 13 Sur 22 Sur 0 -- -- 47
2020-07-10 11:00:00 24.2 3 Noroeste 6 Noroeste 0 -- -- 60
2020-07-10 10:00:00 21.9 0 Calma 5 Norte 0 -- -- 65
2020-07-10 09:00:00 18.5 2 Norte 13 Noroeste 0 -- -- 77
2020-07-10 08:00:00 16.7 6 Noroeste 15 Norte 0 -- -- 84
2020-07-10 07:00:00 16.8 7 Noroeste 13 Noroeste 0 -- -- 82
2020-07-10 06:00:00 17.3 6 Noroeste 12 Noroeste 0 -- -- 82
2020-07-10 05:00:00 17.9 4 Noroeste 12 Noroeste 0 -- -- 79
2020-07-10 04:00:00 18.5 5 Noroeste 15 Noroeste 0 -- -- 77
2020-07-10 03:00:00 19.1 5 Noroeste 10 Oeste 0 -- -- 76
2020-07-10 02:00:00 19.8 5 Noroeste 10 Noroeste 0 -- -- 78
2020-07-10 01:00:00 20.4 0 Calma 6 Este 0 -- -- 79
2020-07-10 00:00:00 21.4 0 Calma 11 Noroeste 0 -- -- 77
2020-07-09 23:00:00 22.1 3 Sudeste 8 Noroeste 0 -- -- 73
2020-07-09 22:00:00 23 2 Sudeste 7 Oeste 0 -- -- 67
2020-07-09 21:00:00 23.7 5 Sur 33 Sur 0 -- -- 63
2020-07-09 20:00:00 24.2 24 Sur 36 Sur 0 -- -- 62
2020-07-09 19:00:00 27.2 19 Sur 31 Sur 0 -- -- 60
2020-07-09 18:00:00 29.5 15 Sur 37 Sur 0 -- -- 50
2020-07-09 17:00:00 30.9 19 Sur 32 Sur 0 -- -- 44
2020-07-09 16:00:00 30.8 14 Sur 27 Sur 0 -- -- 41
2020-07-09 15:00:00 29.5 10 Sudoeste 30 Sur 0 -- -- 46
2020-07-09 14:00:00 28 21 Sur 32 Sur 0 -- -- 51
2020-07-09 13:00:00 26 2 Norte 7 Sur 0 -- -- 57
2020-07-09 12:00:00 23 2 Oeste 12 Norte 0 -- -- 71
2020-07-09 11:00:00 20.4 6 Noroeste 14 Norte 0 -- -- 82
2020-07-09 10:00:00 19.9 6 Norte 18 Noroeste 0 -- -- 81
2020-07-09 09:00:00 19.5 6 Noroeste 13 Norte 0 -- -- 83
2020-07-09 08:00:00 19.1 3 Sur 14 Noroeste 0 -- -- 86
2020-07-09 07:00:00 19.2 6 Noroeste 15 Noroeste 0.2 -- -- 83
2020-07-09 06:00:00 19 3 Norte 15 Noroeste 0 -- -- 87
2020-07-09 05:00:00 19.1 7 Noroeste 13 Oeste 0 -- -- 89
2020-07-09 04:00:00 19 0 Calma 20 Sudoeste 0 -- -- 91
2020-07-09 03:00:00 19.7 7 Sur 16 Sur 0 -- -- 89
2020-07-09 02:00:00 20.3 10 Sur 25 Sur 0 -- -- 87
2020-07-09 01:00:00 21.5 10 Sur 22 Sur 0 -- -- 73
2020-07-09 00:00:00 20.9 4 Sur 13 Noroeste 0 -- -- 80
2020-07-08 23:00:00 21.2 2 Sudoeste 15 Norte 0 -- -- 80
2020-07-08 22:00:00 21 8 Noroeste 16 Norte 0 -- -- 82
2020-07-08 21:00:00 20.8 6 Noroeste 12 Norte 0 -- -- 86
2020-07-08 20:00:00 21.5 4 Norte 32 Noroeste 0.2 -- -- 80
2020-07-08 19:00:00 23.8 14 Norte 42 Noroeste 0.4 -- -- 79
2020-07-08 18:00:00 25.5 15 Sur 22 Sur 0 -- -- 70
2020-07-08 17:00:00 27 15 Sur 30 Sur 0 -- -- 65
2020-07-08 16:00:00 28.4 15 Sur 32 Sur 0 -- -- 61
2020-07-08 15:00:00 28.6 16 Sur 33 Sur 0 -- -- 57
2020-07-08 14:00:00 28.3 5 Noroeste 30 Sudoeste 0 -- -- 49
2020-07-08 13:00:00 27.8 5 Sur 20 Sur 0 -- -- 49
2020-07-08 12:00:00 25.9 4 Sudoeste 23 Sur 0 -- -- 61
2020-07-08 11:00:00 24 10 Sur 15 Sur 0 -- -- 65
2020-07-08 10:00:00 22.2 0 Calma 7 Noroeste 0 -- -- 77
2020-07-08 09:00:00 20.1 2 Norte 10 Noroeste 0 -- -- 84
2020-07-08 08:00:00 18.6 4 Noroeste 9 Oeste 0 -- -- 90
2020-07-08 07:00:00 17.9 0 Calma -- -- 0 -- -- 92
2020-07-08 06:00:00 18.3 0 Calma 2 Noroeste 0 -- -- 90
2020-07-08 05:00:00 19.4 3 Noroeste 6 Oeste 0 -- -- 89
2020-07-08 04:00:00 20 3 Noroeste 6 Oeste 0 -- -- 88
2020-07-08 03:00:00 20.4 2 Noroeste 5 Noroeste 0 -- -- 88
2020-07-08 02:00:00 20.3 0 Calma 5 Este 0 -- -- 85
2020-07-08 01:00:00 21.1 0 Calma 3 Sudoeste 0 -- -- 83
2020-07-08 00:00:00 21.7 0 Calma 6 Sur 0 -- -- 81